world map with LIEC marked

LIEC - Location

This information may not be accurate or current and is not valid for navigation or flight planning. No warranty of fitness for any purpose is made or implied.

flag of Sardiniaflag of Italy

Donate via PayPal

Additional information is available on the NEW Great Circle Mapper

Location
City:  Cape Carbonara, Sardinia, Italy
ICAO:LIEC

Details
Latitude:39°06'N (39.100)
Longitude:9°31'E (9.517)
Elevation:387 ft (118 m)

Time
Timezone:UTC+1 (DST+4)
Local Time:

Weather
METAR:LIEC  041355Z 04025KT 9999 SCT025 13/10 Q1014 RMK SCT QUK 3 QUL 0 VIS MAR 18 KM VIS MIN 9999

Related Locations
Nearby:
Farthest:CHT: 11986 mi / 19290 km
Waitangi [Tuuta], CIT, NZ

Find:

   beyond  
but within

Other Information
Maps:
Sources:

  


 


Great Circle Mapper   Great Circle Mapper
Great Circle Mapper FAQ   Great Circle Mapper FAQ
  Karl's Home Page
KLSē   KLSē Home
   GC on Facebook
Airlines of the World   Airlines of the World
Donate via PayPal


Copyright © 2004-2020, Karl L. Swartz. All rights reserved.
All trademarks mentioned herein belong to their respective owners.

Please see credits for attribution and copyright information.

Karl Swartz <karl@kls2.com>
  Powered by FreeBSD
Valid HTML 4.01!
Labeled with ICRA
hCard Microformat
Geo Microformat